Time;durP1;ratioP1;P1;durP2;ratioP2;P2;SDS_P1;SDS_P2;PMS_P1;PMS_P2;Temp;Humidity;BMP_temperature;BMP_pressure;BME280_temperature;BME280_humidity;BME280_pressure;Samples;Min_cycle;Max_cycle;Signal;HPM_P1;HPM_P2
2023/05/20 00:02:20;;;;;;;7.40;4.67;;;16.40;67.00;;;;;;5067991;28;20487;-61
2023/05/20 00:04:52;;;;;;;11.20;5.40;;;16.40;67.00;;;;;;5068729;28;20914;-61
2023/05/20 00:07:25;;;;;;;12.13;4.83;;;16.40;67.10;;;;;;5068773;28;20457;-61
2023/05/20 00:10:02;;;;;;;11.67;5.20;;;16.50;67.10;;;;;;5064263;28;20460;-63
2023/05/20 00:12:39;;;;;;;8.17;5.53;;;16.50;67.10;;;;;;5068961;28;20545;-61
2023/05/20 00:15:19;;;;;;;8.50;4.37;;;16.50;67.10;;;;;;5068942;28;20452;-61
2023/05/20 00:18:03;;;;;;;8.67;5.30;;;16.50;67.10;;;;;;5066916;28;20459;-61
2023/05/20 00:20:35;;;;;;;8.50;5.20;;;16.50;67.20;;;;;;5065533;28;20463;-62
2023/05/20 00:23:15;;;;;;;10.83;4.93;;;16.40;67.10;;;;;;5067137;28;20471;-62
2023/05/20 00:25:49;;;;;;;8.30;4.97;;;16.40;67.10;;;;;;5065277;28;20549;-61
2023/05/20 00:28:22;;;;;;;10.60;5.13;;;16.30;67.20;;;;;;5069478;28;20466;-62
2023/05/20 00:31:02;;;;;;;10.80;5.40;;;16.20;67.30;;;;;;5050917;28;20640;-62
2023/05/20 00:33:41;;;;;;;9.47;5.43;;;16.10;67.40;;;;;;5064766;28;20468;-61
2023/05/20 00:36:14;;;;;;;10.83;5.47;;;16.10;67.50;;;;;;5067994;28;20531;-62
2023/05/20 00:38:46;;;;;;;7.67;5.07;;;16.00;67.60;;;;;;5067762;28;20460;-62
2023/05/20 00:41:15;;;;;;;11.73;4.90;;;16.00;67.60;;;;;;5064053;28;20471;-62
2023/05/20 00:43:57;;;;;;;7.40;4.80;;;15.90;67.80;;;;;;5068185;28;20769;-62
2023/05/20 00:46:32;;;;;;;7.37;4.80;;;15.80;67.90;;;;;;5067009;28;20782;-61
2023/05/20 00:49:05;;;;;;;7.70;5.00;;;15.80;67.90;;;;;;5066376;28;20449;-62
2023/05/20 00:51:47;;;;;;;11.17;5.97;;;15.80;68.00;;;;;;5063549;28;20470;-62
2023/05/20 00:54:22;;;;;;;8.63;5.60;;;15.70;68.20;;;;;;5068606;28;20465;-62
2023/05/20 00:56:54;;;;;;;7.47;4.60;;;15.70;68.30;;;;;;5060361;28;20455;-62
2023/05/20 00:59:35;;;;;;;10.13;6.27;;;15.70;68.40;;;;;;5066783;28;20462;-61
2023/05/20 01:02:12;;;;;;;9.37;5.50;;;15.70;68.50;;;;;;5060602;28;20497;-62
2023/05/20 01:04:49;;;;;;;8.80;4.60;;;15.70;68.60;;;;;;5062672;28;21189;-63
2023/05/20 01:07:24;;;;;;;9.33;5.50;;;15.70;68.70;;;;;;5064790;28;20463;-61
2023/05/20 01:09:58;;;;;;;13.27;5.77;;;15.60;68.70;;;;;;5065620;28;20491;-61
2023/05/20 01:12:59;;;;;;;9.83;5.10;;;15.60;68.90;;;;;;5063719;28;20474;-62
2023/05/20 01:15:35;;;;;;;8.30;5.20;;;15.60;69.00;;;;;;5059528;28;20518;-61
2023/05/20 01:18:10;;;;;;;7.63;5.33;;;15.60;69.10;;;;;;5064528;28;20778;-61
2023/05/20 01:20:48;;;;;;;10.13;5.50;;;15.60;69.30;;;;;;5065113;28;20464;-62
2023/05/20 01:23:32;;;;;;;11.00;5.80;;;15.60;69.30;;;;;;5066055;28;20472;-61
2023/05/20 01:26:09;;;;;;;11.20;5.07;;;15.60;69.60;;;;;;5061666;28;21008;-61
2023/05/20 01:28:43;;;;;;;9.03;5.07;;;15.60;69.60;;;;;;5063345;28;20548;-61
2023/05/20 01:31:24;;;;;;;11.20;5.43;;;15.60;69.70;;;;;;5068016;28;20479;-61
2023/05/20 01:34:01;;;;;;;8.07;5.67;;;15.70;69.70;;;;;;5067731;28;20465;-61
2023/05/20 01:36:35;;;;;;;10.63;5.87;;;15.60;69.70;;;;;;5067912;28;20449;-61
2023/05/20 01:39:12;;;;;;;9.67;5.10;;;15.70;69.80;;;;;;5066957;28;20508;-61
2023/05/20 01:41:52;;;;;;;8.67;5.43;;;15.70;69.90;;;;;;5067151;28;21792;-61
2023/05/20 01:44:21;;;;;;;7.93;5.10;;;15.70;70.00;;;;;;5086847;28;20457;-61
2023/05/20 01:46:53;;;;;;;8.53;5.73;;;15.70;70.00;;;;;;5065240;28;20457;-62
2023/05/20 01:49:31;;;;;;;9.80;5.70;;;15.70;70.10;;;;;;5071105;28;20454;-61
2023/05/20 01:52:07;;;;;;;10.00;5.40;;;15.70;70.20;;;;;;5067793;28;21113;-62
2023/05/20 01:54:49;;;;;;;13.40;6.47;;;15.70;70.30;;;;;;5070132;28;20456;-61
2023/05/20 01:57:27;;;;;;;9.83;5.80;;;15.70;70.40;;;;;;5063633;28;20474;-61
2023/05/20 01:59:58;;;;;;;11.60;6.07;;;15.70;70.40;;;;;;5067380;28;20498;-62
2023/05/20 02:02:31;;;;;;;12.00;6.00;;;15.70;70.50;;;;;;5059716;28;20485;-61
2023/05/20 02:05:07;;;;;;;9.30;5.63;;;15.70;70.50;;;;;;5068176;28;20494;-61
2023/05/20 02:07:40;;;;;;;10.87;5.73;;;15.70;70.60;;;;;;5067922;28;20997;-61
2023/05/20 02:10:25;;;;;;;8.10;5.47;;;15.70;70.60;;;;;;5068907;28;20465;-62
2023/05/20 02:13:06;;;;;;;9.60;6.60;;;15.70;70.70;;;;;;5066295;28;21203;-61
2023/05/20 02:15:41;;;;;;;9.07;5.70;;;15.70;70.80;;;;;;5070815;28;20450;-61
2023/05/20 02:18:12;;;;;;;13.73;6.70;;;15.70;70.80;;;;;;5072088;28;21038;-61
2023/05/20 02:20:44;;;;;;;9.80;5.20;;;15.70;70.90;;;;;;5071811;28;20465;-61
2023/05/20 02:26:08;;;;;;;12.53;6.40;;;15.80;71.00;;;;;;5067620;28;20869;-61
2023/05/20 02:28:45;;;;;;;9.83;6.03;;;15.80;71.00;;;;;;5065646;28;20468;-61
2023/05/20 02:31:28;;;;;;;12.63;7.00;;;15.70;71.10;;;;;;5068214;28;20471;-61
2023/05/20 02:34:03;;;;;;;12.20;7.20;;;15.70;71.20;;;;;;5076930;28;21092;-61
2023/05/20 02:36:41;;;;;;;11.83;6.17;;;15.70;71.20;;;;;;5071956;28;20460;-61
2023/05/20 02:39:14;;;;;;;11.00;6.03;;;15.70;71.30;;;;;;5071279;28;20459;-61
2023/05/20 02:41:56;;;;;;;9.53;6.73;;;15.60;71.40;;;;;;5070009;28;20488;-61
2023/05/20 02:44:29;;;;;;;9.30;6.47;;;15.70;71.40;;;;;;5068294;28;20452;-61
2023/05/20 02:47:03;;;;;;;10.53;6.60;;;15.70;71.40;;;;;;5075661;28;20988;-61
2023/05/20 02:49:37;;;;;;;8.60;5.67;;;15.70;71.50;;;;;;5070079;28;20461;-61
2023/05/20 02:52:16;;;;;;;9.77;6.77;;;15.60;71.60;;;;;;5068670;28;20469;-62
2023/05/20 02:54:51;;;;;;;10.10;6.57;;;15.60;71.70;;;;;;5069862;28;20481;-61
2023/05/20 02:57:30;;;;;;;11.43;7.53;;;15.60;71.70;;;;;;5066273;28;20464;-61
2023/05/20 03:02:51;;;;;;;15.40;6.47;;;15.50;72.00;;;;;;5070553;28;20478;-61
2023/05/20 03:05:41;;;;;;;9.57;6.27;;;15.50;72.10;;;;;;5082976;28;20489;-61
2023/05/20 03:08:15;;;;;;;10.20;7.10;;;15.50;72.30;;;;;;5068324;28;20467;-61
2023/05/20 03:10:48;;;;;;;12.60;6.60;;;15.60;72.30;;;;;;5068863;28;20473;-61
2023/05/20 03:13:35;;;;;;;10.20;6.60;;;15.50;72.30;;;;;;5066397;28;20571;-61
2023/05/20 03:16:11;;;;;;;10.33;6.77;;;15.60;72.20;;;;;;5068445;28;20514;-61
2023/05/20 03:18:45;;;;;;;10.57;7.10;;;15.60;72.20;;;;;;5068828;28;20463;-61
2023/05/20 03:21:17;;;;;;;10.00;6.50;;;15.60;72.20;;;;;;5067823;28;20500;-61
2023/05/20 03:23:51;;;;;;;11.07;7.33;;;15.60;72.20;;;;;;5068047;28;20555;-61
2023/05/20 03:26:32;;;;;;;12.30;6.90;;;15.60;72.20;;;;;;5064590;28;20473;-61
2023/05/20 03:29:10;;;;;;;9.93;6.70;;;15.70;72.20;;;;;;5067163;28;20804;-61
2023/05/20 03:31:50;;;;;;;10.30;6.87;;;15.70;72.30;;;;;;5064825;28;20487;-62
2023/05/20 03:34:21;;;;;;;9.13;6.80;;;15.70;72.30;;;;;;5068984;28;20539;-61
2023/05/20 03:36:59;;;;;;;10.37;6.47;;;15.70;72.30;;;;;;5072366;28;20477;-61
2023/05/20 03:39:29;;;;;;;10.37;7.77;;;15.70;72.30;;;;;;5068050;28;20496;-61
2023/05/20 03:42:09;;;;;;;11.57;7.20;;;15.60;72.50;;;;;;5065558;28;20542;-61
2023/05/20 03:44:56;;;;;;;11.37;7.43;;;15.60;72.60;;;;;;5064805;28;20555;-61
2023/05/20 03:47:32;;;;;;;14.43;7.20;;;15.60;72.60;;;;;;5065471;28;21012;-61
2023/05/20 03:50:07;;;;;;;11.93;6.93;;;15.60;72.60;;;;;;5065875;28;20462;-61
2023/05/20 03:52:41;;;;;;;11.03;7.40;;;15.60;72.70;;;;;;5067321;28;20465;-61
2023/05/20 03:55:15;;;;;;;11.83;7.50;;;15.60;72.90;;;;;;5070869;28;20469;-61
2023/05/20 04:00:37;;;;;;;9.47;6.73;;;15.60;72.70;;;;;;5066256;28;20525;-61
2023/05/20 04:03:11;;;;;;;10.37;7.70;;;15.60;72.80;;;;;;5069541;28;20749;-66
2023/05/20 04:05:46;;;;;;;12.30;7.87;;;15.60;72.80;;;;;;5069391;28;20507;-61
2023/05/20 04:08:24;;;;;;;11.90;7.20;;;15.60;72.80;;;;;;5065656;28;20457;-62
2023/05/20 04:11:02;;;;;;;12.70;8.30;;;15.60;72.90;;;;;;5083168;28;20504;-61
2023/05/20 04:13:34;;;;;;;10.63;7.20;;;15.60;72.90;;;;;;5064453;28;20457;-61
2023/05/20 04:16:10;;;;;;;9.90;7.13;;;15.60;72.90;;;;;;5063862;28;20465;-62
2023/05/20 04:18:40;;;;;;;10.23;7.57;;;15.60;73.10;;;;;;5068680;28;20456;-61
2023/05/20 04:21:11;;;;;;;12.00;8.07;;;15.60;73.00;;;;;;5066167;28;20547;-61
2023/05/20 04:23:47;;;;;;;8.67;6.40;;;15.60;73.10;;;;;;5081732;28;20561;-61
2023/05/20 04:26:19;;;;;;;13.07;8.37;;;15.60;73.00;;;;;;5064613;28;20476;-61
2023/05/20 04:28:57;;;;;;;11.53;8.00;;;15.70;73.10;;;;;;5064616;28;20517;-61
2023/05/20 04:31:49;;;;;;;11.60;7.20;;;15.70;73.10;;;;;;5067237;28;20488;-61
2023/05/20 04:34:25;;;;;;;11.77;7.50;;;15.70;73.10;;;;;;5059113;28;20463;-61
2023/05/20 04:36:59;;;;;;;13.90;8.30;;;15.60;73.30;;;;;;5070430;28;21119;-61
2023/05/20 04:39:37;;;;;;;10.77;7.70;;;15.60;73.40;;;;;;5069230;28;20539;-61
2023/05/20 04:42:10;;;;;;;11.17;8.00;;;15.60;73.50;;;;;;5068979;28;20466;-61
2023/05/20 04:44:40;;;;;;;15.20;8.70;;;15.60;73.50;;;;;;5068127;28;20462;-61
2023/05/20 04:47:17;;;;;;;12.17;7.20;;;15.50;73.80;;;;;;5067085;28;20952;-61
2023/05/20 04:49:52;;;;;;;11.50;7.80;;;15.50;73.80;;;;;;5067503;28;20458;-62
2023/05/20 04:52:28;;;;;;;10.77;7.43;;;15.60;73.70;;;;;;5064170;28;20455;-61
2023/05/20 04:55:00;;;;;;;10.40;8.13;;;15.60;73.70;;;;;;5084060;28;20466;-61
2023/05/20 04:57:35;;;;;;;12.43;8.50;;;15.60;73.80;;;;;;5070317;28;20460;-61
2023/05/20 05:00:16;;;;;;;11.53;7.90;;;15.60;73.90;;;;;;5064150;28;20847;-61
2023/05/20 05:02:56;;;;;;;12.27;8.10;;;15.50;74.10;;;;;;5064848;28;20472;-62
2023/05/20 05:05:28;;;;;;;14.30;8.30;;;15.60;74.10;;;;;;5062636;28;20460;-61
2023/05/20 05:08:07;;;;;;;11.13;7.60;;;15.60;74.10;;;;;;5064782;28;20500;-61
2023/05/20 05:10:45;;;;;;;12.40;7.90;;;15.70;74.00;;;;;;5062801;28;20767;-61
2023/05/20 05:13:18;;;;;;;11.83;8.63;;;15.70;74.00;;;;;;5069015;28;20457;-61
2023/05/20 05:15:58;;;;;;;12.77;8.20;;;15.80;73.90;;;;;;5066631;28;20552;-62
2023/05/20 05:18:35;;;;;;;11.53;8.17;;;15.80;73.90;;;;;;5070433;28;20488;-61
2023/05/20 05:21:06;;;;;;;11.60;8.27;;;15.80;73.90;;;;;;5081949;28;20565;-62
2023/05/20 05:23:41;;;;;;;9.90;7.80;;;15.80;73.80;;;;;;5063559;28;20469;-61
2023/05/20 05:26:17;;;;;;;12.93;8.60;;;15.80;73.90;;;;;;5070896;28;20579;-61
2023/05/20 05:28:53;;;;;;;12.43;9.10;;;15.80;73.90;;;;;;5068987;28;20465;-61
2023/05/20 05:31:26;;;;;;;11.93;8.60;;;15.90;73.90;;;;;;5064290;28;20484;-61
2023/05/20 05:33:58;;;;;;;12.03;7.97;;;15.90;73.90;;;;;;5068259;28;20461;-61
2023/05/20 05:36:33;;;;;;;11.27;8.47;;;16.00;74.10;;;;;;5067743;28;20836;-61
2023/05/20 05:39:05;;;;;;;10.80;8.53;;;16.20;74.50;;;;;;5066803;28;20461;-61
2023/05/20 05:41:38;;;;;;;17.23;9.07;;;16.70;74.70;;;;;;5065704;28;20557;-61
2023/05/20 05:44:12;;;;;;;11.77;7.73;;;17.50;74.40;;;;;;5067803;28;20457;-61
2023/05/20 05:46:48;;;;;;;16.33;8.10;;;18.50;73.20;;;;;;5063718;28;20513;-61
2023/05/20 05:49:27;;;;;;;13.43;8.53;;;19.50;71.20;;;;;;5071699;28;20584;-61
2023/05/20 05:51:58;;;;;;;14.57;9.10;;;19.80;69.00;;;;;;5067444;28;20461;-61
2023/05/20 05:54:33;;;;;;;12.20;8.77;;;19.60;68.50;;;;;;5069443;28;20968;-61
2023/05/20 05:57:08;;;;;;;12.77;8.63;;;19.60;69.60;;;;;;5071038;28;20916;-62
2023/05/20 05:59:41;;;;;;;11.30;7.80;;;20.00;67.90;;;;;;5069104;28;20449;-61
2023/05/20 06:02:19;;;;;;;12.90;8.33;;;19.70;66.90;;;;;;5070322;28;20482;-63
2023/05/20 06:04:56;;;;;;;12.03;8.40;;;19.30;67.40;;;;;;5073851;28;20462;-61
2023/05/20 06:07:36;;;;;;;12.00;9.03;;;19.10;67.60;;;;;;5074116;28;20465;-62
2023/05/20 06:10:16;;;;;;;15.57;9.20;;;18.80;67.30;;;;;;5067612;28;20458;-61
2023/05/20 06:12:49;;;;;;;15.97;10.00;;;18.50;68.20;;;;;;5060768;28;21014;-62
2023/05/20 06:15:22;;;;;;;12.10;8.93;;;18.40;67.70;;;;;;5057291;28;20570;-62
2023/05/20 06:18:02;;;;;;;13.47;9.10;;;18.30;68.50;;;;;;5068894;28;20466;-61
2023/05/20 06:20:37;;;;;;;13.00;9.40;;;18.20;68.00;;;;;;5079010;28;20994;-61
2023/05/20 06:23:12;;;;;;;13.03;10.40;;;17.90;68.10;;;;;;5066329;28;21028;-61
2023/05/20 06:25:58;;;;;;;13.20;9.60;;;17.60;68.40;;;;;;5071569;28;20522;-61
2023/05/20 06:28:31;;;;;;;12.30;9.57;;;17.30;69.10;;;;;;5067667;28;20470;-62
2023/05/20 06:31:07;;;;;;;15.50;11.33;;;17.10;69.50;;;;;;5068160;28;20469;-61
2023/05/20 06:33:40;;;;;;;14.13;9.73;;;17.00;70.10;;;;;;5070943;28;20791;-61
2023/05/20 06:36:31;;;;;;;12.43;9.50;;;16.80;70.40;;;;;;5070712;28;20457;-61
2023/05/20 06:39:05;;;;;;;12.93;9.93;;;16.80;70.80;;;;;;5070228;28;20465;-61
2023/05/20 06:41:45;;;;;;;13.77;11.30;;;16.80;71.00;;;;;;5068417;28;20540;-61
2023/05/20 06:44:28;;;;;;;12.77;9.50;;;16.90;71.20;;;;;;5067877;28;20469;-61
2023/05/20 06:47:11;;;;;;;13.83;9.70;;;17.00;71.10;;;;;;5060080;28;20819;-61
2023/05/20 06:49:44;;;;;;;12.93;10.03;;;17.00;71.30;;;;;;5064527;28;20493;-61
2023/05/20 06:52:24;;;;;;;14.63;10.63;;;17.00;71.50;;;;;;5067062;28;20457;-61
2023/05/20 06:54:56;;;;;;;15.40;10.63;;;17.10;71.70;;;;;;5059658;28;20863;-61
2023/05/20 06:57:28;;;;;;;15.07;10.80;;;17.10;71.70;;;;;;5066073;28;20597;-61
2023/05/20 07:00:00;;;;;;;14.40;10.03;;;17.20;71.70;;;;;;5068230;28;20889;-61
2023/05/20 07:02:33;;;;;;;15.03;11.40;;;17.20;71.70;;;;;;5061326;28;20508;-61
2023/05/20 07:05:06;;;;;;;16.07;10.93;;;17.20;71.60;;;;;;5065553;28;20458;-61
2023/05/20 07:07:44;;;;;;;16.83;11.53;;;17.20;71.70;;;;;;5066454;28;20491;-61
2023/05/20 07:10:19;;;;;;;15.10;11.43;;;17.20;71.70;;;;;;5062616;28;20501;-61
2023/05/20 07:12:59;;;;;;;15.63;11.30;;;17.20;71.90;;;;;;5065582;28;20527;-61
2023/05/20 07:15:31;;;;;;;15.70;11.27;;;17.20;71.80;;;;;;5059665;28;20549;-61
2023/05/20 07:18:04;;;;;;;17.40;11.73;;;17.30;71.90;;;;;;5062913;28;20515;-61
2023/05/20 07:20:37;;;;;;;17.83;11.30;;;17.30;71.90;;;;;;5064240;28;20461;-62
2023/05/20 07:23:17;;;;;;;14.50;10.70;;;17.30;71.80;;;;;;5068747;28;20467;-61
2023/05/20 07:26:02;;;;;;;18.10;12.00;;;17.20;71.90;;;;;;5067462;28;20564;-61
2023/05/20 07:28:38;;;;;;;15.00;11.30;;;17.30;72.00;;;;;;5083758;28;20963;-61
2023/05/20 07:31:12;;;;;;;22.13;11.80;;;17.20;72.20;;;;;;5067219;28;20466;-61
2023/05/20 07:33:49;;;;;;;17.90;11.90;;;17.30;72.20;;;;;;5069432;28;20564;-62
2023/05/20 07:36:23;;;;;;;17.47;14.00;;;17.40;72.20;;;;;;5066915;28;20852;-61
2023/05/20 07:39:13;;;;;;;19.67;14.67;;;17.40;72.20;;;;;;5069877;28;20462;-61
2023/05/20 07:41:47;;;;;;;21.80;12.47;;;17.50;72.10;;;;;;5060287;28;20470;-62
2023/05/20 07:44:22;;;;;;;17.90;13.40;;;17.60;72.30;;;;;;5067514;28;20884;-61
2023/05/20 07:47:00;;;;;;;16.70;12.60;;;17.70;72.20;;;;;;5067233;28;20568;-61
2023/05/20 07:49:34;;;;;;;17.43;12.57;;;17.70;72.30;;;;;;5069578;28;20867;-61
2023/05/20 07:52:04;;;;;;;20.23;15.90;;;17.70;72.40;;;;;;5068669;28;20462;-61
2023/05/20 07:54:39;;;;;;;17.10;13.10;;;17.80;72.20;;;;;;5068330;28;20446;-61
2023/05/20 07:57:10;;;;;;;16.00;12.37;;;17.90;72.30;;;;;;5066543;28;20458;-61
2023/05/20 07:59:42;;;;;;;16.10;11.70;;;18.00;72.20;;;;;;5070422;28;20450;-61
2023/05/20 08:02:14;;;;;;;17.27;12.50;;;18.00;72.30;;;;;;5065267;28;20510;-61
2023/05/20 08:04:48;;;;;;;14.87;11.10;;;18.20;72.20;;;;;;5069903;28;20458;-61
2023/05/20 08:07:28;;;;;;;18.53;13.37;;;18.20;72.00;;;;;;5069330;28;20460;-61
2023/05/20 08:10:03;;;;;;;18.50;13.63;;;18.20;71.80;;;;;;5082182;28;20532;-61
2023/05/20 08:12:37;;;;;;;15.23;11.67;;;18.30;71.70;;;;;;5086043;28;20466;-61
2023/05/20 08:15:22;;;;;;;18.10;11.70;;;18.40;71.60;;;;;;5066389;28;20453;-61
2023/05/20 08:20:39;;;;;;;16.30;12.13;;;18.50;70.90;;;;;;5069015;28;20522;-61
2023/05/20 08:23:19;;;;;;;14.67;11.43;;;18.50;70.70;;;;;;5060257;28;20465;-61
2023/05/20 08:26:01;;;;;;;19.03;13.23;;;18.50;70.70;;;;;;5067458;28;20476;-60
2023/05/20 08:28:42;;;;;;;15.80;11.90;;;18.60;70.70;;;;;;5066843;28;20513;-61
2023/05/20 08:31:23;;;;;;;14.67;10.70;;;18.70;70.60;;;;;;5066008;28;20495;-62
2023/05/20 08:33:56;;;;;;;17.57;13.03;;;18.70;70.20;;;;;;5059986;28;20460;-61
2023/05/20 08:36:36;;;;;;;14.90;11.53;;;18.80;70.00;;;;;;5069011;28;20458;-61
2023/05/20 08:39:09;;;;;;;15.23;11.87;;;18.80;70.20;;;;;;5067012;28;20556;-61
2023/05/20 08:41:49;;;;;;;14.27;11.63;;;18.80;69.80;;;;;;5084316;28;21042;-61
2023/05/20 08:44:24;;;;;;;17.03;11.70;;;18.90;69.60;;;;;;5068690;28;20457;-61
2023/05/20 08:47:00;;;;;;;16.83;11.77;;;18.90;69.50;;;;;;5066699;28;20480;-61
2023/05/20 08:49:39;;;;;;;14.33;11.77;;;18.90;69.60;;;;;;5066972;28;20486;-62
2023/05/20 08:52:14;;;;;;;14.50;10.77;;;18.90;69.50;;;;;;5066146;28;20514;-61
2023/05/20 08:54:55;;;;;;;15.40;11.37;;;18.90;69.60;;;;;;5068608;28;20467;-61
2023/05/20 08:57:40;;;;;;;14.20;10.77;;;18.90;69.50;;;;;;5067212;28;20461;-61
2023/05/20 09:00:15;;;;;;;13.57;11.17;;;18.90;69.40;;;;;;5063638;28;20969;-61
2023/05/20 09:02:50;;;;;;;14.50;10.80;;;18.80;69.70;;;;;;5064679;28;20917;-61
2023/05/20 09:05:31;;;;;;;16.87;10.77;;;18.90;69.90;;;;;;5065912;28;20543;-61
2023/05/20 09:08:11;;;;;;;13.20;9.80;;;19.00;69.80;;;;;;5067776;28;20560;-61
2023/05/20 09:10:45;;;;;;;16.30;11.37;;;19.00;69.40;;;;;;5066874;28;20444;-60
2023/05/20 09:13:20;;;;;;;12.03;9.40;;;19.00;69.50;;;;;;5063976;28;20471;-61
2023/05/20 09:15:54;;;;;;;11.30;9.10;;;19.10;69.00;;;;;;5068274;28;20494;-61
2023/05/20 09:18:26;;;;;;;14.20;10.60;;;19.10;68.80;;;;;;5068904;28;21090;-61
2023/05/20 09:21:06;;;;;;;12.37;10.37;;;19.10;68.50;;;;;;5067440;28;20492;-61
2023/05/20 09:23:49;;;;;;;15.80;11.17;;;19.10;68.50;;;;;;5066677;28;20475;-61
2023/05/20 09:26:23;;;;;;;14.43;9.90;;;19.20;68.40;;;;;;5067289;28;20527;-61
2023/05/20 09:29:02;;;;;;;13.97;9.43;;;19.20;68.30;;;;;;5065937;28;20484;-62
2023/05/20 09:31:37;;;;;;;13.77;9.40;;;19.20;68.40;;;;;;5066087;28;20480;-61
2023/05/20 09:34:12;;;;;;;13.60;9.57;;;19.20;68.30;;;;;;5065718;28;20949;-61
2023/05/20 09:36:52;;;;;;;17.30;10.50;;;19.10;68.20;;;;;;5067773;28;20457;-61
2023/05/20 09:39:31;;;;;;;16.37;11.07;;;19.10;68.30;;;;;;5067739;28;20466;-61
2023/05/20 09:42:12;;;;;;;14.23;9.97;;;19.10;68.60;;;;;;5066240;28;20464;-61
2023/05/20 09:45:08;;;;;;;13.30;10.30;;;19.20;68.60;;;;;;5067946;28;21119;-61
2023/05/20 09:47:46;;;;;;;12.40;9.90;;;19.30;68.20;;;;;;5066814;28;20458;-62
2023/05/20 09:50:20;;;;;;;15.63;10.93;;;19.30;68.40;;;;;;5067013;28;20503;-61
2023/05/20 09:52:50;;;;;;;13.97;9.70;;;19.40;68.30;;;;;;5066828;28;21023;-61
2023/05/20 09:55:29;;;;;;;15.00;9.37;;;19.50;68.30;;;;;;5067081;28;20530;-61
2023/05/20 09:58:05;;;;;;;13.40;9.90;;;19.50;67.90;;;;;;5062307;28;21026;-61
2023/05/20 10:00:47;;;;;;;15.10;10.97;;;19.60;67.70;;;;;;5058396;28;20568;-62
2023/05/20 10:03:20;;;;;;;15.13;10.63;;;19.60;67.50;;;;;;5066972;28;20462;-61
2023/05/20 10:06:07;;;;;;;13.30;10.83;;;19.60;67.50;;;;;;5067573;28;20560;-61
2023/05/20 10:09:04;;;;;;;14.93;10.10;;;19.70;67.50;;;;;;5062566;28;20477;-61
2023/05/20 10:11:50;;;;;;;12.53;10.80;;;19.70;67.40;;;;;;5060917;28;20471;-62
2023/05/20 10:14:43;;;;;;;12.87;9.63;;;19.70;67.40;;;;;;5066529;28;21212;-61
2023/05/20 10:17:40;;;;;;;13.60;10.03;;;19.80;67.40;;;;;;5062498;28;20468;-61
2023/05/20 10:20:16;;;;;;;16.37;9.70;;;19.80;67.10;;;;;;5062093;28;20461;-64
2023/05/20 10:23:00;;;;;;;12.37;9.50;;;19.80;67.10;;;;;;5060321;28;20457;-62
2023/05/20 10:25:33;;;;;;;14.37;10.67;;;19.90;67.10;;;;;;5060276;28;20462;-62
2023/05/20 10:31:00;;;;;;;15.30;10.87;;;19.80;67.60;;;;;;5060955;28;20969;-62
2023/05/20 10:33:45;;;;;;;13.50;10.97;;;19.90;67.60;;;;;;5062910;28;20832;-62
2023/05/20 10:36:33;;;;;;;13.27;10.60;;;20.00;67.40;;;;;;5063463;28;20503;-62
2023/05/20 10:39:15;;;;;;;15.23;11.03;;;19.90;67.40;;;;;;5066144;28;20789;-62
2023/05/20 10:41:51;;;;;;;12.07;9.13;;;20.00;67.50;;;;;;5065275;28;20464;-62
2023/05/20 10:44:34;;;;;;;15.07;9.67;;;20.10;67.20;;;;;;5065308;28;21239;-62
2023/05/20 10:47:11;;;;;;;14.97;10.23;;;20.20;67.00;;;;;;5070262;28;20454;-61
2023/05/20 10:49:54;;;;;;;14.50;10.67;;;20.20;66.90;;;;;;5069449;28;20600;-61
2023/05/20 10:52:33;;;;;;;15.10;10.80;;;20.20;66.80;;;;;;5068552;28;20457;-61
2023/05/20 10:55:08;;;;;;;12.70;9.70;;;20.20;66.80;;;;;;5068504;28;20464;-62
2023/05/20 10:57:42;;;;;;;15.67;10.30;;;20.30;66.80;;;;;;5061121;28;20468;-62
2023/05/20 11:00:13;;;;;;;14.17;10.80;;;20.40;66.70;;;;;;5062343;28;20485;-62
2023/05/20 11:02:50;;;;;;;16.70;10.97;;;20.40;66.60;;;;;;5067022;28;20471;-61
2023/05/20 11:05:26;;;;;;;11.07;9.20;;;20.40;66.60;;;;;;5068350;28;20975;-61
2023/05/20 11:08:05;;;;;;;15.60;10.30;;;20.50;66.70;;;;;;5068875;28;20468;-61
2023/05/20 11:10:57;;;;;;;19.33;9.83;;;20.50;66.70;;;;;;5064790;28;20481;-62
2023/05/20 11:13:33;;;;;;;15.57;10.50;;;20.60;66.40;;;;;;5068079;28;20922;-62
2023/05/20 11:16:05;;;;;;;13.20;10.00;;;20.70;66.20;;;;;;5066989;28;20456;-62
2023/05/20 11:18:46;;;;;;;13.77;10.00;;;20.80;66.40;;;;;;5066383;28;20829;-62
2023/05/20 11:21:20;;;;;;;13.80;9.90;;;20.90;66.10;;;;;;5068157;28;20457;-62
2023/05/20 11:23:55;;;;;;;13.80;10.53;;;21.00;65.60;;;;;;5067823;28;20474;-62
2023/05/20 11:26:33;;;;;;;13.43;10.20;;;21.00;65.60;;;;;;5069490;28;20465;-62
2023/05/20 11:29:09;;;;;;;13.73;9.93;;;21.10;65.50;;;;;;5067792;28;20548;-62
2023/05/20 11:31:43;;;;;;;15.80;10.00;;;21.10;65.30;;;;;;5069176;28;20485;-62
2023/05/20 11:34:22;;;;;;;13.07;10.70;;;21.10;65.30;;;;;;5069810;28;20487;-62
2023/05/20 11:37:02;;;;;;;16.23;10.53;;;21.00;65.10;;;;;;5068546;28;20457;-62
2023/05/20 11:39:38;;;;;;;14.70;10.70;;;21.10;65.10;;;;;;5067105;28;20465;-61
2023/05/20 11:42:12;;;;;;;15.60;10.70;;;21.10;65.30;;;;;;5068807;28;20460;-61
2023/05/20 11:44:47;;;;;;;14.20;10.30;;;21.10;65.40;;;;;;5071412;28;21084;-61
2023/05/20 11:47:17;;;;;;;13.33;10.00;;;21.20;65.30;;;;;;5067768;28;20462;-61
2023/05/20 11:49:54;;;;;;;13.47;9.73;;;21.10;65.20;;;;;;5067763;28;20488;-62
2023/05/20 11:52:41;;;;;;;12.53;9.53;;;21.10;65.30;;;;;;5065958;28;20998;-61
2023/05/20 11:55:15;;;;;;;15.80;11.63;;;21.20;65.60;;;;;;5066119;28;20454;-61
2023/05/20 11:57:45;;;;;;;13.60;10.50;;;21.30;65.50;;;;;;5071599;28;20445;-61
2023/05/20 12:00:19;;;;;;;14.20;10.73;;;21.30;65.50;;;;;;5065683;28;20470;-62
2023/05/20 12:02:54;;;;;;;13.27;9.97;;;21.30;65.60;;;;;;5069594;28;20895;-61
2023/05/20 12:05:26;;;;;;;12.70;9.70;;;21.30;65.60;;;;;;5063770;28;20468;-62
2023/05/20 12:08:14;;;;;;;14.03;10.40;;;21.50;65.10;;;;;;5070887;28;20922;-62
2023/05/20 12:10:51;;;;;;;11.73;8.87;;;21.50;64.60;;;;;;5067614;28;20474;-61
2023/05/20 12:13:26;;;;;;;17.33;10.90;;;21.50;64.50;;;;;;5065629;28;20468;-61
2023/05/20 12:16:07;;;;;;;13.20;9.60;;;21.60;64.50;;;;;;5068289;28;20462;-61
2023/05/20 12:18:42;;;;;;;14.67;9.40;;;21.60;63.90;;;;;;5066317;28;20851;-62
2023/05/20 12:21:12;;;;;;;12.47;9.57;;;21.60;63.70;;;;;;5069760;28;20469;-62
2023/05/20 12:23:56;;;;;;;13.77;9.80;;;21.70;63.70;;;;;;5068534;28;20918;-61
2023/05/20 12:26:36;;;;;;;14.77;9.20;;;21.70;63.40;;;;;;5066868;28;20479;-61
2023/05/20 12:29:07;;;;;;;15.43;10.37;;;21.70;63.40;;;;;;5069272;28;20440;-61
2023/05/20 12:31:39;;;;;;;13.07;9.90;;;21.70;63.30;;;;;;5064357;28;20491;-61
2023/05/20 12:37:01;;;;;;;12.70;9.60;;;21.80;63.10;;;;;;5065936;28;20784;-62
2023/05/20 12:39:42;;;;;;;13.33;10.03;;;21.80;62.90;;;;;;5068377;28;20467;-62
2023/05/20 12:42:15;;;;;;;14.23;9.83;;;21.80;63.10;;;;;;5067300;28;20446;-62
2023/05/20 12:44:46;;;;;;;13.50;10.10;;;21.80;63.10;;;;;;5069528;28;20464;-62
2023/05/20 12:47:17;;;;;;;17.43;10.20;;;21.80;63.30;;;;;;5063928;28;20462;-62
2023/05/20 12:49:50;;;;;;;14.53;9.70;;;21.80;63.30;;;;;;5068133;28;21003;-65
2023/05/20 12:52:29;;;;;;;12.10;9.20;;;21.80;63.30;;;;;;5065914;28;20955;-61
2023/05/20 12:55:13;;;;;;;16.70;10.47;;;21.90;63.40;;;;;;5069281;28;20461;-62
2023/05/20 12:57:45;;;;;;;16.00;9.80;;;22.00;63.30;;;;;;5070267;28;20781;-62
2023/05/20 13:00:27;;;;;;;14.13;10.30;;;22.10;63.10;;;;;;5067127;28;20469;-61
2023/05/20 13:02:59;;;;;;;12.70;9.80;;;22.10;63.00;;;;;;5062769;28;20460;-62
2023/05/20 13:05:40;;;;;;;12.97;9.80;;;22.20;62.60;;;;;;5071820;28;20788;-62
2023/05/20 13:08:19;;;;;;;11.10;9.23;;;22.20;62.40;;;;;;5070296;28;20453;-62
2023/05/20 13:11:06;;;;;;;13.83;9.60;;;22.20;62.40;;;;;;5070758;28;20513;-62
2023/05/20 13:13:44;;;;;;;14.97;11.30;;;22.20;62.60;;;;;;5065211;28;20515;-61
2023/05/20 13:16:18;;;;;;;14.87;10.10;;;22.30;62.90;;;;;;5065218;28;20461;-62
2023/05/20 13:18:52;;;;;;;15.70;11.20;;;22.40;63.00;;;;;;5070541;28;20449;-62
2023/05/20 13:21:26;;;;;;;16.80;12.37;;;22.40;63.00;;;;;;5070325;28;20924;-62
2023/05/20 13:26:57;;;;;;;15.47;10.50;;;22.20;63.30;;;;;;5065776;28;20453;-61
2023/05/20 13:29:30;;;;;;;13.30;10.60;;;22.20;63.60;;;;;;5066663;28;20584;-62
2023/05/20 13:32:05;;;;;;;16.80;12.00;;;22.20;63.50;;;;;;5064983;28;20482;-61
2023/05/20 13:34:38;;;;;;;15.80;11.10;;;22.20;63.60;;;;;;5062989;28;20469;-62
2023/05/20 13:37:25;;;;;;;14.53;11.10;;;22.20;63.60;;;;;;5072573;28;20459;-61
2023/05/20 13:40:05;;;;;;;16.17;10.87;;;22.20;63.80;;;;;;5069272;28;20445;-62
2023/05/20 13:42:45;;;;;;;15.07;11.90;;;22.30;63.70;;;;;;5066404;28;20457;-62
2023/05/20 13:45:17;;;;;;;17.27;11.70;;;22.30;63.60;;;;;;5070724;28;20468;-61